Terminal Aerodrome Forecast
Issued by NWS Portland, OR

Home | Current Version | Previous Version | Text Only | Print | Product List | Glossary On
Versions: 1 2 3 4 5 6 7 8 9 10 11 12 13 14 15 16 17 18 19 20 21 22 23 24 25 26 27 28 29 30 31 32 33 34
990
FTUS46 KPQR 142341
TAFSLE
TAF
KSLE 142341Z 1500/1524 18010KT P6SM -RA BKN012 BKN025 OVC050
     FM150300 19008KT P6SM -RA SCT015 SCT030 BKN050
     FM150800 19008KT P6SM -RA OVC008
     FM151900 19012KT P6SM SCT015 BKN035 OVC050=

USA.gov is the U.S. government's official web portal to all federal, state and local government web resources and services.